createdAt,value
2022-09-12T00:01:25.611Z,11.69
2022-09-12T00:03:55.312Z,11.71
2022-09-12T00:06:26.582Z,11.61
2022-09-12T00:08:56.759Z,11.75
2022-09-12T00:11:25.053Z,11.75
2022-09-12T00:13:57.560Z,11.82
2022-09-12T00:16:27.907Z,11.78
2022-09-12T00:18:56.216Z,11.80
2022-09-12T00:21:25.666Z,11.82
2022-09-12T00:23:54.133Z,11.67
2022-09-12T00:26:23.155Z,11.51
2022-09-12T00:28:52.182Z,11.60
2022-09-12T00:31:24.033Z,11.50
2022-09-12T00:33:53.075Z,11.37
2022-09-12T00:36:23.062Z,11.37
2022-09-12T00:38:51.782Z,11.50
2022-09-12T00:41:23.516Z,11.36
2022-09-12T00:43:53.407Z,11.40
2022-09-12T00:46:35.844Z,11.36
2022-09-12T00:49:08.488Z,11.27
2022-09-12T00:51:38.200Z,11.22
2022-09-12T00:54:09.563Z,11.25
2022-09-12T00:56:42.134Z,11.32
2022-09-12T00:59:14.719Z,11.38
2022-09-12T01:01:47.536Z,11.23
2022-09-12T01:04:18.386Z,11.20
2022-09-12T01:06:48.630Z,10.90
2022-09-12T01:09:19.263Z,10.98
2022-09-12T01:11:49.686Z,11.13
2022-09-12T01:14:19.319Z,10.94
2022-09-12T01:16:50.884Z,10.91
2022-09-12T01:19:44.088Z,10.82
2022-09-12T01:22:28.716Z,10.79
2022-09-12T01:25:07.112Z,10.67
2022-09-12T01:27:47.866Z,10.63
2022-09-12T01:30:26.191Z,10.59
2022-09-12T01:33:18.383Z,10.66
2022-09-12T01:35:56.645Z,10.76
2022-09-12T01:38:29.090Z,10.88
2022-09-12T01:41:02.650Z,10.68
2022-09-12T01:43:37.798Z,10.61
2022-09-12T01:46:14.277Z,10.56
2022-09-12T01:48:48.683Z,10.69
2022-09-12T01:51:23.905Z,10.47
2022-09-12T01:53:55.648Z,10.69
2022-09-12T01:56:26.818Z,10.72
2022-09-12T01:59:00.151Z,10.73
2022-09-12T02:01:33.116Z,10.65
2022-09-12T02:04:09.713Z,10.44
2022-09-12T02:06:44.640Z,10.55
2022-09-12T02:09:18.326Z,10.38
2022-09-12T02:11:48.597Z,10.39
2022-09-12T02:14:22.520Z,10.41
2022-09-12T02:16:56.798Z,10.47
2022-09-12T02:19:28.806Z,10.61
2022-09-12T02:22:00.024Z,10.76
2022-09-12T02:24:32.619Z,10.77
2022-09-12T02:27:05.872Z,10.51
2022-09-12T02:29:34.108Z,10.61
2022-09-12T02:32:06.793Z,10.48
2022-09-12T02:34:48.235Z,10.51
2022-09-12T02:37:26.186Z,10.56
2022-09-12T02:39:55.590Z,10.33
2022-09-12T02:42:25.305Z,10.35
2022-09-12T02:44:56.525Z,10.25
2022-09-12T02:47:29.886Z,10.48
2022-09-12T02:49:59.268Z,10.34
2022-09-12T02:52:28.902Z,10.30
2022-09-12T02:54:59.134Z,10.27
2022-09-12T02:57:27.393Z,10.37
2022-09-12T03:00:00.419Z,10.22
2022-09-12T03:02:38.507Z,10.26
2022-09-12T03:05:27.776Z,10.39
2022-09-12T03:08:08.983Z,10.16
2022-09-12T03:10:48.891Z,10.31
2022-09-12T03:13:24.593Z,10.14
2022-09-12T03:16:05.085Z,10.10
2022-09-12T03:18:47.231Z,10.00
2022-09-12T03:21:24.520Z,9.87
2022-09-12T03:24:05.586Z,9.80
2022-09-12T03:26:38.842Z,9.79
2022-09-12T03:29:09.181Z,9.91
2022-09-12T03:31:39.376Z,10.04
2022-09-12T03:34:13.087Z,10.15
2022-09-12T03:36:41.966Z,10.10
2022-09-12T03:39:10.226Z,10.00
2022-09-12T03:41:38.404Z,10.00
2022-09-12T03:44:06.603Z,10.14
2022-09-12T03:46:34.936Z,9.96
2022-09-12T03:49:03.123Z,9.69
2022-09-12T03:51:32.695Z,9.93
2022-09-12T03:54:00.809Z,9.79
2022-09-12T03:56:29.303Z,9.94
2022-09-12T03:58:57.536Z,9.84
2022-09-12T04:01:25.901Z,9.84
2022-09-12T04:03:54.095Z,9.64
2022-09-12T04:06:24.013Z,9.64
2022-09-12T04:08:55.246Z,9.79
2022-09-12T04:11:24.319Z,9.70
2022-09-12T04:13:52.887Z,9.45
2022-09-12T04:16:21.454Z,9.50
2022-09-12T04:18:49.646Z,9.46
2022-09-12T04:21:21.786Z,9.52
2022-09-12T04:23:50.424Z,9.37
2022-09-12T04:26:21.410Z,9.23
2022-09-12T04:28:53.703Z,9.35
2022-09-12T04:31:23.544Z,9.50
2022-09-12T04:33:55.159Z,9.59
2022-09-12T04:36:23.422Z,9.54
2022-09-12T04:38:52.097Z,9.50
2022-09-12T04:41:23.530Z,9.31
2022-09-12T04:43:54.365Z,9.54
2022-09-12T04:46:22.620Z,9.63
2022-09-12T04:48:55.934Z,9.51
2022-09-12T04:51:28.089Z,9.48
2022-09-12T04:53:58.332Z,9.41
2022-09-12T04:56:29.580Z,9.13
2022-09-12T04:58:59.073Z,9.52
2022-09-12T05:01:30.459Z,9.29
2022-09-12T05:04:00.263Z,9.24
2022-09-12T05:06:31.695Z,9.31
2022-09-12T05:09:00.382Z,9.54
2022-09-12T05:11:59.610Z,9.61
2022-09-12T05:14:19.462Z,9.43
2022-09-12T05:16:49.618Z,9.58
2022-09-12T05:19:18.295Z,9.42
2022-09-12T05:21:46.497Z,9.45
2022-09-12T05:24:14.746Z,9.32
2022-09-12T05:26:44.247Z,9.61
2022-09-12T05:29:13.214Z,10.11
2022-09-12T05:31:41.515Z,10.29
2022-09-12T05:34:10.217Z,10.49
2022-09-12T05:36:38.593Z,10.43
2022-09-12T05:39:06.820Z,10.59
2022-09-12T05:41:36.021Z,10.67
2022-09-12T05:44:08.029Z,10.72
2022-09-12T05:46:38.564Z,10.90
2022-09-12T05:49:09.821Z,11.01
2022-09-12T05:51:40.549Z,11.27
2022-09-12T05:54:11.087Z,11.47
2022-09-12T05:56:41.005Z,11.71
2022-09-12T05:59:14.190Z,11.85
2022-09-12T06:01:43.247Z,11.95
2022-09-12T06:04:12.105Z,12.06
2022-09-12T06:06:43.397Z,12.18
2022-09-12T06:09:12.890Z,12.27
2022-09-12T06:11:41.924Z,12.42
2022-09-12T06:14:12.917Z,12.47
2022-09-12T06:16:41.327Z,12.52
2022-09-12T06:19:15.398Z,12.66
2022-09-12T06:21:43.778Z,12.68
2022-09-12T06:24:12.173Z,12.53
2022-09-12T06:26:40.424Z,12.43
2022-09-12T06:29:08.655Z,12.32
2022-09-12T06:31:39.695Z,12.21
2022-09-12T06:34:10.111Z,11.78
2022-09-12T06:36:40.179Z,11.71
2022-09-12T06:39:11.892Z,11.77
2022-09-12T06:41:43.691Z,11.41
2022-09-12T06:44:14.177Z,11.86
2022-09-12T06:46:44.238Z,11.69
2022-09-12T06:49:13.160Z,12.22
2022-09-12T06:51:43.093Z,12.49
2022-09-12T06:54:13.889Z,12.63
2022-09-12T06:56:42.320Z,12.66
2022-09-12T06:59:10.676Z,12.59
2022-09-12T07:01:40.162Z,12.81
2022-09-12T07:04:10.995Z,12.74
2022-09-12T07:06:41.391Z,12.95
2022-09-12T07:09:12.092Z,12.76
2022-09-12T07:11:42.084Z,12.74
2022-09-12T07:14:14.034Z,12.76
2022-09-12T07:16:42.757Z,13.00
2022-09-12T07:19:12.735Z,13.17
2022-09-12T07:21:41.629Z,13.38
2022-09-12T07:24:11.234Z,13.42
2022-09-12T07:26:42.144Z,13.74
2022-09-12T07:29:36.024Z,13.94
2022-09-12T07:32:05.871Z,13.92
2022-09-12T07:34:36.141Z,14.11
2022-09-12T07:37:04.571Z,14.37
2022-09-12T07:39:32.783Z,14.51
2022-09-12T07:42:01.420Z,14.71
2022-09-12T07:44:30.080Z,14.62
2022-09-12T07:46:58.223Z,14.95
2022-09-12T07:49:26.371Z,14.95
2022-09-12T07:51:55.854Z,15.49
2022-09-12T07:54:24.315Z,15.97
2022-09-12T07:56:52.458Z,16.08
2022-09-12T07:59:41.529Z,16.41
2022-09-12T08:02:17.081Z,16.21
2022-09-12T08:04:47.872Z,15.91
2022-09-12T08:07:19.126Z,16.33
2022-09-12T08:09:47.553Z,16.24
2022-09-12T08:12:16.539Z,16.72
2022-09-12T08:14:44.851Z,16.97
2022-09-12T08:17:14.308Z,16.62
2022-09-12T08:19:42.599Z,16.33
2022-09-12T08:22:11.212Z,16.60
2022-09-12T08:24:40.980Z,16.85
2022-09-12T08:27:09.374Z,17.01
2022-09-12T08:29:37.530Z,17.08
2022-09-12T08:32:05.850Z,17.00
2022-09-12T08:34:33.983Z,17.48
2022-09-12T08:37:02.162Z,17.67
2022-09-12T08:39:30.295Z,17.76
2022-09-12T08:42:03.094Z,18.03
2022-09-12T08:44:55.663Z,18.18
2022-09-12T08:47:28.404Z,17.78
2022-09-12T08:50:11.431Z,17.84
2022-09-12T08:52:45.010Z,18.45
2022-09-12T08:55:26.557Z,17.87
2022-09-12T08:57:56.043Z,18.19
2022-09-12T09:00:24.258Z,18.05
2022-09-12T09:03:09.389Z,17.68
2022-09-12T09:05:49.250Z,17.56
2022-09-12T09:08:31.772Z,17.15
2022-09-12T09:11:11.105Z,17.10
2022-09-12T09:14:08.092Z,16.97
2022-09-12T09:16:39.169Z,16.92
2022-09-12T09:19:12.966Z,17.18
2022-09-12T09:21:45.538Z,17.45
2022-09-12T09:24:17.796Z,17.50
2022-09-12T09:26:52.481Z,17.24
2022-09-12T09:29:26.098Z,17.53
2022-09-12T09:31:57.711Z,17.40
2022-09-12T09:34:29.971Z,17.47
2022-09-12T09:37:08.325Z,17.47
2022-09-12T09:39:48.163Z,17.10
2022-09-12T09:42:28.226Z,16.76
2022-09-12T09:45:01.049Z,16.73
2022-09-12T09:47:29.379Z,16.50
2022-09-12T09:49:57.514Z,16.35
2022-09-12T09:52:29.515Z,16.45
2022-09-12T09:55:00.883Z,16.37
2022-09-12T09:57:46.639Z,16.29
2022-09-12T10:00:25.829Z,16.36
2022-09-12T10:03:25.542Z,16.42
2022-09-12T10:05:55.515Z,16.50
2022-09-12T10:08:26.337Z,16.61
2022-09-12T10:11:01.335Z,17.06
2022-09-12T10:13:35.310Z,17.60
2022-09-12T10:16:07.606Z,18.00
2022-09-12T10:18:38.283Z,18.50
2022-09-12T10:21:29.603Z,18.79
2022-09-12T10:24:14.418Z,18.90
2022-09-12T10:26:44.797Z,18.84
2022-09-12T10:29:17.218Z,19.34
2022-09-12T10:31:51.819Z,19.44
2022-09-12T10:34:28.019Z,19.70
2022-09-12T10:37:02.764Z,19.88
2022-09-12T10:39:32.767Z,19.82
2022-09-12T10:42:01.386Z,19.75
2022-09-12T10:44:31.730Z,19.34
2022-09-12T10:47:20.463Z,19.74
2022-09-12T10:49:50.950Z,19.82
2022-09-12T10:52:24.163Z,20.24
2022-09-12T10:54:52.868Z,20.22
2022-09-12T10:57:51.177Z,20.89
2022-09-12T11:00:27.604Z,20.83
2022-09-12T11:03:07.554Z,20.70
2022-09-12T11:05:52.592Z,20.95
2022-09-12T11:08:37.448Z,20.70
2022-09-12T11:11:13.720Z,21.10
2022-09-12T11:14:00.670Z,21.02
2022-09-12T11:16:41.059Z,20.79
2022-09-12T11:19:33.490Z,20.43
2022-09-12T11:22:17.972Z,20.49
2022-09-12T11:25:09.910Z,20.58
2022-09-12T11:28:00.200Z,20.06
2022-09-12T11:30:39.053Z,19.68
2022-09-12T11:33:30.061Z,19.75
2022-09-12T11:36:05.982Z,20.41
2022-09-12T11:38:51.808Z,20.49
2022-09-12T11:41:26.083Z,20.09
2022-09-12T11:44:01.215Z,20.38
2022-09-12T11:46:36.228Z,20.72
2022-09-12T11:49:15.644Z,20.88
2022-09-12T11:51:50.662Z,20.93
2022-09-12T11:54:25.519Z,20.77
2022-09-12T11:57:02.226Z,20.89
2022-09-12T11:59:36.369Z,20.79
2022-09-12T12:02:11.801Z,20.39
2022-09-12T12:04:45.914Z,20.32
2022-09-12T12:07:15.374Z,20.42
2022-09-12T12:09:51.354Z,20.81
2022-09-12T12:12:24.266Z,21.04
2022-09-12T12:14:56.388Z,21.06
2022-09-12T12:17:26.130Z,21.07
2022-09-12T12:20:04.767Z,21.26
2022-09-12T12:22:36.376Z,21.51
2022-09-12T12:25:29.406Z,21.28
2022-09-12T12:28:01.715Z,21.08
2022-09-12T12:31:02.060Z,20.61
2022-09-12T12:33:56.551Z,20.36
2022-09-12T12:36:35.710Z,20.01
2022-09-12T12:39:47.922Z,20.24
2022-09-12T12:42:53.052Z,20.03
2022-09-12T12:46:04.214Z,19.84
2022-09-12T12:49:16.755Z,19.56
2022-09-12T12:52:01.230Z,19.84
2022-09-12T12:54:49.138Z,19.80
2022-09-12T12:57:21.306Z,19.86
2022-09-12T12:59:53.879Z,19.69
2022-09-12T13:02:28.340Z,19.97
2022-09-12T13:04:57.639Z,19.57
2022-09-12T13:07:32.198Z,19.73
2022-09-12T13:10:02.492Z,19.72
2022-09-12T13:12:34.838Z,19.81
2022-09-12T13:15:04.008Z,19.72
2022-09-12T13:17:38.960Z,19.90
2022-09-12T13:20:28.393Z,20.08
2022-09-12T13:22:59.110Z,20.08
2022-09-12T13:25:32.615Z,20.33
2022-09-12T13:28:07.459Z,20.43
2022-09-12T13:30:37.746Z,19.91
2022-09-12T13:33:17.471Z,19.91
2022-09-12T13:36:09.803Z,20.09
2022-09-12T13:38:52.339Z,20.18
2022-09-12T13:41:33.971Z,19.97
2022-09-12T13:44:03.944Z,20.23
2022-09-12T13:46:35.171Z,19.85
2022-09-12T13:49:17.471Z,20.22
2022-09-12T13:51:45.715Z,20.43
2022-09-12T13:54:24.322Z,20.41
2022-09-12T13:56:52.899Z,20.67
2022-09-12T13:59:21.220Z,20.47
2022-09-12T14:01:49.819Z,20.16
2022-09-12T14:04:38.358Z,20.50
2022-09-12T14:07:14.642Z,20.58
2022-09-12T14:09:47.102Z,20.75
2022-09-12T14:12:23.087Z,20.82
2022-09-12T14:14:52.541Z,20.83
2022-09-12T14:17:29.441Z,20.74
2022-09-12T14:19:59.440Z,20.82
2022-09-12T14:22:29.873Z,20.84
2022-09-12T14:25:00.136Z,20.84
2022-09-12T14:27:31.633Z,21.00
2022-09-12T14:30:03.545Z,20.39
2022-09-12T14:32:31.816Z,20.33
2022-09-12T14:35:17.896Z,20.64
2022-09-12T14:37:49.171Z,20.99
2022-09-12T14:40:20.770Z,20.94
2022-09-12T14:42:50.738Z,20.85
2022-09-12T14:45:25.769Z,21.10
2022-09-12T14:47:54.715Z,21.09
2022-09-12T14:50:26.248Z,20.87
2022-09-12T14:53:04.637Z,20.89
2022-09-12T14:55:35.931Z,21.10
2022-09-12T14:58:23.388Z,20.79
2022-09-12T15:00:57.737Z,20.73
2022-09-12T15:03:29.494Z,20.96
2022-09-12T15:05:58.383Z,20.48
2022-09-12T15:08:26.843Z,20.74
2022-09-12T15:10:56.424Z,20.49
2022-09-12T15:13:26.510Z,20.54
2022-09-12T15:15:56.163Z,20.18
2022-09-12T15:18:25.977Z,20.33
2022-09-12T15:20:57.262Z,20.36
2022-09-12T15:23:33.289Z,20.21
2022-09-12T15:26:03.739Z,20.13
2022-09-12T15:28:32.840Z,19.91
2022-09-12T15:31:06.818Z,19.85
2022-09-12T15:33:35.102Z,19.91
2022-09-12T15:36:03.804Z,19.80
2022-09-12T15:38:31.942Z,19.63
2022-09-12T15:41:00.206Z,19.60
2022-09-12T15:43:29.670Z,19.30
2022-09-12T15:45:59.312Z,19.34
2022-09-12T15:48:27.495Z,19.23
2022-09-12T15:50:57.682Z,18.98
2022-09-12T15:53:25.834Z,18.99
2022-09-12T15:55:54.088Z,18.94
2022-09-12T15:58:22.308Z,18.82
2022-09-12T16:00:51.810Z,18.77
2022-09-12T16:03:24.206Z,18.55
2022-09-12T16:05:57.112Z,18.40
2022-09-12T16:08:25.688Z,18.31
2022-09-12T16:10:56.806Z,18.37
2022-09-12T16:13:25.106Z,18.32
2022-09-12T16:15:57.633Z,18.23
2022-09-12T16:18:26.603Z,18.18
2022-09-12T16:20:54.840Z,18.07
2022-09-12T16:23:23.830Z,17.89
2022-09-12T16:25:58.870Z,17.80
2022-09-12T16:28:27.403Z,17.74
2022-09-12T16:30:57.710Z,17.66
2022-09-12T16:33:26.690Z,17.51
2022-09-12T16:36:03.280Z,17.44
2022-09-12T16:38:31.789Z,17.36
2022-09-12T16:41:04.138Z,17.32
2022-09-12T16:43:33.778Z,17.32
2022-09-12T16:46:05.183Z,17.31
2022-09-12T16:48:33.893Z,17.18
2022-09-12T16:51:03.958Z,17.23
2022-09-12T16:53:33.095Z,16.97
2022-09-12T16:56:01.731Z,16.92
2022-09-12T16:58:33.378Z,16.85
2022-09-12T17:01:03.948Z,16.78
2022-09-12T17:03:32.261Z,16.67
2022-09-12T17:06:01.491Z,16.58
2022-09-12T17:08:30.247Z,16.51
2022-09-12T17:11:01.587Z,16.51
2022-09-12T17:13:53.043Z,16.45
2022-09-12T17:16:20.947Z,16.28
2022-09-12T17:18:49.819Z,16.12
2022-09-12T17:21:18.180Z,16.07
2022-09-12T17:23:46.749Z,16.01
2022-09-12T17:26:15.587Z,15.88
2022-09-12T17:28:44.142Z,15.87
2022-09-12T17:31:14.874Z,15.74
2022-09-12T17:33:44.713Z,15.75
2022-09-12T17:36:15.343Z,15.67
2022-09-12T17:38:45.297Z,15.58
2022-09-12T17:41:15.991Z,15.57
2022-09-12T17:43:46.032Z,15.56
2022-09-12T17:46:14.817Z,15.45
2022-09-12T17:48:44.766Z,15.35
2022-09-12T17:51:15.603Z,15.29
2022-09-12T17:53:44.045Z,15.19
2022-09-12T17:56:12.904Z,15.15
2022-09-12T17:58:41.362Z,15.13
2022-09-12T18:01:32.354Z,15.26
2022-09-12T18:04:02.242Z,15.05
2022-09-12T18:06:32.448Z,15.09
2022-09-12T18:09:01.198Z,15.08
2022-09-12T18:11:29.797Z,15.04
2022-09-12T18:13:59.706Z,15.04
2022-09-12T18:16:28.675Z,14.90
2022-09-12T18:18:56.780Z,14.91
2022-09-12T18:21:26.290Z,14.74
2022-09-12T18:23:54.436Z,14.81
2022-09-12T18:26:22.766Z,14.82
2022-09-12T18:28:50.896Z,14.76
2022-09-12T18:31:21.293Z,14.59
2022-09-12T18:33:49.838Z,14.56
2022-09-12T18:36:19.379Z,14.46
2022-09-12T18:38:49.683Z,14.42
2022-09-12T18:41:19.817Z,14.44
2022-09-12T18:43:48.778Z,14.60
2022-09-12T18:46:19.050Z,14.50
2022-09-12T18:48:47.736Z,14.53
2022-09-12T18:51:18.198Z,14.47
2022-09-12T18:53:52.042Z,14.32
2022-09-12T18:56:21.172Z,14.04
2022-09-12T18:58:52.267Z,13.98
2022-09-12T19:01:22.788Z,14.06
2022-09-12T19:03:51.071Z,13.95
2022-09-12T19:06:20.996Z,13.94
2022-09-12T19:08:52.708Z,13.72
2022-09-12T19:11:21.870Z,13.85
2022-09-12T19:13:53.114Z,13.88
2022-09-12T19:16:23.787Z,13.68
2022-09-12T19:18:52.951Z,13.54
2022-09-12T19:21:23.229Z,13.52
2022-09-12T19:23:53.991Z,13.59
2022-09-12T19:26:22.720Z,13.54
2022-09-12T19:28:51.080Z,13.40
2022-09-12T19:31:20.345Z,13.45
2022-09-12T19:33:49.274Z,13.41
2022-09-12T19:39:10.151Z,13.29
2022-09-12T19:41:38.378Z,13.33
2022-09-12T19:44:06.586Z,13.12
2022-09-12T19:46:35.026Z,13.09
2022-09-12T19:49:03.376Z,13.28
2022-09-12T19:51:31.640Z,13.29
2022-09-12T19:53:59.824Z,13.31
2022-09-12T19:56:29.376Z,13.30
2022-09-12T19:58:57.649Z,13.23
2022-09-12T20:01:28.310Z,13.15
2022-09-12T20:03:57.423Z,12.85
2022-09-12T20:06:26.599Z,12.84
2022-09-12T20:08:55.228Z,12.85
2022-09-12T20:11:25.745Z,12.70
2022-09-12T20:13:55.319Z,12.69
2022-09-12T20:16:25.617Z,12.91
2022-09-12T20:18:55.865Z,12.63
2022-09-12T20:21:31.090Z,12.61
2022-09-12T20:24:04.932Z,12.55
2022-09-12T20:26:33.474Z,12.52
2022-09-12T20:29:03.684Z,12.45
2022-09-12T20:31:32.342Z,12.50
2022-09-12T20:34:00.783Z,12.31
2022-09-12T20:36:29.085Z,12.32
2022-09-12T20:39:00.013Z,12.32
2022-09-12T20:41:30.423Z,12.15
2022-09-12T20:43:59.282Z,12.18
2022-09-12T20:46:29.819Z,12.12
2022-09-12T20:48:58.725Z,11.93
2022-09-12T20:51:29.519Z,11.96
2022-09-12T20:53:58.745Z,11.75
2022-09-12T20:56:28.404Z,11.95
2022-09-12T20:58:56.927Z,12.01
2022-09-12T21:01:26.680Z,11.93
2022-09-12T21:03:56.195Z,11.88
2022-09-12T21:06:24.470Z,11.82
2022-09-12T21:08:53.546Z,11.71
2022-09-12T21:11:21.850Z,11.86
2022-09-12T21:13:50.291Z,11.91
2022-09-12T21:16:20.158Z,11.92
2022-09-12T21:18:48.872Z,11.88
2022-09-12T21:21:18.558Z,11.92
2022-09-12T21:23:47.022Z,11.91
2022-09-12T21:26:15.183Z,11.83
2022-09-12T21:28:43.330Z,11.69
2022-09-12T21:31:11.978Z,11.59
2022-09-12T21:33:40.466Z,11.64
2022-09-12T21:36:09.675Z,11.72
2022-09-12T21:38:39.151Z,11.80
2022-09-12T21:41:09.176Z,11.66
2022-09-12T21:43:37.987Z,11.46
2022-09-12T21:46:06.794Z,11.59
2022-09-12T21:48:35.630Z,11.56
2022-09-12T21:51:04.767Z,11.54
2022-09-12T21:53:33.064Z,11.54
2022-09-12T21:56:04.070Z,11.44
2022-09-12T21:58:32.367Z,11.55
2022-09-12T22:01:01.005Z,11.53
2022-09-12T22:03:30.160Z,11.24
2022-09-12T22:05:59.007Z,11.10
2022-09-12T22:08:27.696Z,10.88
2022-09-12T22:10:59.955Z,10.97
2022-09-12T22:13:32.337Z,11.19
2022-09-12T22:16:03.171Z,11.04
2022-09-12T22:18:34.365Z,11.22
2022-09-12T22:21:05.238Z,11.21
2022-09-12T22:23:51.071Z,11.26
2022-09-12T22:26:19.251Z,11.07
2022-09-12T22:28:49.803Z,10.98
2022-09-12T22:31:18.929Z,11.12
2022-09-12T22:33:48.065Z,11.37
2022-09-12T22:36:16.286Z,11.07
2022-09-12T22:38:44.991Z,10.81
2022-09-12T22:41:14.098Z,10.92
2022-09-12T22:43:42.378Z,10.87
2022-09-12T22:46:13.328Z,10.93
2022-09-12T22:48:41.901Z,10.80
2022-09-12T22:51:12.286Z,10.80
2022-09-12T22:53:40.759Z,10.83
2022-09-12T22:56:10.220Z,10.76
2022-09-12T22:58:38.815Z,10.79
2022-09-12T23:01:07.458Z,10.72
2022-09-12T23:03:37.799Z,10.81
2022-09-12T23:06:07.106Z,10.84
2022-09-12T23:08:36.850Z,10.69
2022-09-12T23:11:06.814Z,10.87
2022-09-12T23:13:34.961Z,10.84
2022-09-12T23:16:05.483Z,10.97
2022-09-12T23:18:35.948Z,10.78
2022-09-12T23:21:09.453Z,10.75
2022-09-12T23:23:37.807Z,10.77
2022-09-12T23:26:08.305Z,10.45
2022-09-12T23:28:37.106Z,10.61
2022-09-12T23:31:05.656Z,10.75
2022-09-12T23:33:34.291Z,10.75
2022-09-12T23:36:08.564Z,10.83
2022-09-12T23:38:36.843Z,10.67
2022-09-12T23:41:05.741Z,10.71
2022-09-12T23:43:34.762Z,10.72
2022-09-12T23:46:04.611Z,10.54
2022-09-12T23:48:33.394Z,10.50
2022-09-12T23:51:01.724Z,10.52
2022-09-12T23:53:31.525Z,10.72
2022-09-12T23:56:00.305Z,10.71
2022-09-12T23:58:30.171Z,10.65
